createdAt,value
2017-12-27T00:02:05.452Z,3.37
2017-12-27T00:04:52.434Z,3.70
2017-12-27T00:07:24.628Z,5.03
2017-12-27T00:09:56.986Z,4.77
2017-12-27T00:15:25.633Z,4.47
2017-12-27T00:17:57.936Z,5.57
2017-12-27T00:20:31.027Z,4.93
2017-12-27T00:23:04.145Z,4.67
2017-12-27T00:25:36.482Z,5.07
2017-12-27T00:28:09.512Z,4.80
2017-12-27T00:30:41.753Z,4.43
2017-12-27T00:33:07.942Z,4.30
2017-12-27T00:35:35.105Z,4.70
2017-12-27T00:38:01.340Z,3.90
2017-12-27T00:40:27.545Z,3.77
2017-12-27T00:42:53.693Z,4.13
2017-12-27T00:45:19.874Z,4.20
2017-12-27T00:47:46.126Z,3.83
2017-12-27T00:50:12.313Z,4.13
2017-12-27T00:52:38.516Z,4.00
2017-12-27T00:55:05.466Z,3.37
2017-12-27T00:57:32.392Z,3.60
2017-12-27T00:59:58.584Z,3.90
2017-12-27T01:02:24.810Z,3.67
2017-12-27T01:04:50.980Z,4.43
2017-12-27T01:07:17.182Z,5.10
2017-12-27T01:09:43.385Z,3.90
2017-12-27T01:12:09.620Z,4.00
2017-12-27T01:14:35.884Z,4.97
2017-12-27T01:17:02.111Z,4.13
2017-12-27T01:19:28.307Z,3.73
2017-12-27T01:21:54.581Z,3.80
2017-12-27T01:24:20.762Z,3.63
2017-12-27T01:26:46.955Z,4.00
2017-12-27T01:29:13.892Z,4.23
2017-12-27T01:31:40.086Z,4.40
2017-12-27T01:34:07.003Z,4.03
2017-12-27T01:36:33.189Z,3.40
2017-12-27T01:38:59.401Z,4.00
2017-12-27T01:41:25.592Z,3.90
2017-12-27T01:43:51.765Z,4.80
2017-12-27T01:46:18.071Z,3.67
2017-12-27T01:48:44.222Z,4.50
2017-12-27T01:51:10.460Z,4.40
2017-12-27T01:53:37.342Z,4.50
2017-12-27T01:56:03.821Z,3.87
2017-12-27T01:58:29.988Z,3.47
2017-12-27T02:00:56.909Z,4.03
2017-12-27T02:03:23.846Z,3.97
2017-12-27T02:05:50.038Z,4.30
2017-12-27T02:08:16.253Z,4.03
2017-12-27T02:10:42.407Z,3.77
2017-12-27T02:13:08.575Z,4.07
2017-12-27T02:25:24.792Z,4.03
2017-12-27T02:27:50.988Z,3.90
2017-12-27T02:30:17.991Z,3.80
2017-12-27T02:32:44.194Z,4.33
2017-12-27T02:35:10.384Z,5.23
2017-12-27T02:37:37.394Z,4.47
2017-12-27T02:40:24.510Z,4.10
2017-12-27T02:42:50.735Z,3.33
2017-12-27T02:45:16.944Z,4.53
2017-12-27T02:47:43.141Z,4.30
2017-12-27T02:50:10.063Z,4.47
2017-12-27T02:52:36.247Z,4.27
2017-12-27T02:55:02.466Z,3.70
2017-12-27T02:57:28.647Z,3.37
2017-12-27T02:59:54.870Z,3.67
2017-12-27T03:02:21.045Z,3.40
2017-12-27T03:04:47.253Z,4.30
2017-12-27T03:07:13.507Z,3.57
2017-12-27T03:09:39.762Z,4.30
2017-12-27T03:12:05.937Z,3.53
2017-12-27T03:14:32.878Z,4.20
2017-12-27T03:16:59.831Z,3.27
2017-12-27T03:19:26.033Z,3.53
2017-12-27T03:21:52.246Z,3.00
2017-12-27T03:24:18.443Z,3.30
2017-12-27T03:26:44.702Z,3.40
2017-12-27T03:29:10.930Z,3.10
2017-12-27T03:31:37.130Z,3.50
2017-12-27T03:34:03.292Z,2.87
2017-12-27T03:36:29.494Z,3.10
2017-12-27T03:38:55.732Z,3.57
2017-12-27T03:41:21.925Z,3.20
2017-12-27T03:43:48.854Z,2.93
2017-12-27T03:46:15.750Z,3.00
2017-12-27T03:48:41.945Z,2.47
2017-12-27T03:51:08.157Z,3.07
2017-12-27T03:53:35.095Z,2.50
2017-12-27T03:56:01.294Z,3.00
2017-12-27T03:58:27.466Z,2.70
2017-12-27T04:00:54.413Z,3.07
2017-12-27T04:03:21.336Z,2.50
2017-12-27T04:05:47.517Z,2.60
2017-12-27T04:08:13.714Z,2.63
2017-12-27T04:10:40.701Z,2.60
2017-12-27T04:13:06.905Z,2.77
2017-12-27T04:15:33.110Z,2.30
2017-12-27T04:18:00.024Z,3.00
2017-12-27T04:20:26.331Z,2.70
2017-12-27T04:22:52.513Z,2.50
2017-12-27T04:25:19.462Z,2.40
2017-12-27T04:27:46.380Z,3.10
2017-12-27T04:30:12.573Z,3.10
2017-12-27T04:32:38.776Z,3.47
2017-12-27T04:35:04.950Z,2.50
2017-12-27T04:37:31.126Z,2.80
2017-12-27T04:39:58.093Z,2.20
2017-12-27T04:42:24.331Z,2.37
2017-12-27T04:44:50.472Z,2.40
2017-12-27T04:47:16.702Z,2.23
2017-12-27T04:49:42.949Z,2.73
2017-12-27T04:52:09.165Z,2.83
2017-12-27T04:54:35.415Z,1.60
2017-12-27T04:57:01.651Z,1.90
2017-12-27T04:59:27.777Z,2.13
2017-12-27T05:01:53.996Z,1.80
2017-12-27T05:04:20.193Z,2.20
2017-12-27T05:06:46.396Z,1.93
2017-12-27T05:09:13.291Z,1.80
2017-12-27T05:11:39.516Z,1.67
2017-12-27T05:14:05.664Z,2.00
2017-12-27T05:16:31.894Z,2.30
2017-12-27T05:18:58.111Z,1.93
2017-12-27T05:21:24.370Z,1.80
2017-12-27T05:23:51.332Z,2.03
2017-12-27T05:26:17.542Z,2.00
2017-12-27T05:28:44.464Z,2.07
2017-12-27T05:31:10.673Z,2.40
2017-12-27T05:33:36.873Z,2.80
2017-12-27T05:36:03.065Z,1.90
2017-12-27T05:38:29.994Z,1.80
2017-12-27T05:40:56.212Z,1.90
2017-12-27T05:43:22.433Z,2.07
2017-12-27T05:45:48.616Z,2.13
2017-12-27T05:48:14.861Z,2.00
2017-12-27T05:50:41.032Z,2.23
2017-12-27T05:53:07.216Z,2.30
2017-12-27T05:55:33.420Z,2.40
2017-12-27T05:58:00.361Z,2.20
2017-12-27T06:00:27.366Z,3.53
2017-12-27T06:02:53.537Z,3.17
2017-12-27T06:05:20.612Z,2.97
2017-12-27T06:07:46.784Z,2.40
2017-12-27T06:10:12.980Z,3.53
2017-12-27T06:12:39.133Z,3.30
2017-12-27T06:15:05.391Z,2.60
2017-12-27T06:17:31.540Z,2.90
2017-12-27T06:19:57.742Z,3.00
2017-12-27T06:22:23.905Z,2.80
2017-12-27T06:24:50.178Z,3.60
2017-12-27T06:27:16.358Z,3.10
2017-12-27T06:29:43.046Z,3.63
2017-12-27T06:32:09.251Z,3.60
2017-12-27T06:34:35.510Z,3.23
2017-12-27T06:37:01.724Z,2.97
2017-12-27T06:39:27.864Z,3.13
2017-12-27T06:41:54.075Z,3.17
2017-12-27T06:44:20.362Z,3.93
2017-12-27T06:46:47.394Z,4.00
2017-12-27T06:49:13.629Z,4.47
2017-12-27T06:51:40.547Z,3.43
2017-12-27T06:54:06.930Z,3.97
2017-12-27T06:56:33.479Z,3.60
2017-12-27T06:58:59.637Z,3.73
2017-12-27T07:01:25.872Z,3.77
2017-12-27T07:03:52.052Z,3.87
2017-12-27T07:06:18.270Z,3.90
2017-12-27T07:08:45.233Z,3.70
2017-12-27T07:11:11.432Z,4.30
2017-12-27T07:13:38.364Z,3.90
2017-12-27T07:16:05.203Z,4.37
2017-12-27T07:18:32.038Z,4.30
2017-12-27T07:20:58.217Z,3.40
2017-12-27T07:23:24.961Z,3.60
2017-12-27T07:25:51.153Z,4.87
2017-12-27T07:28:17.365Z,4.40
2017-12-27T07:30:43.642Z,4.60
2017-12-27T07:33:10.609Z,3.93
2017-12-27T07:35:36.895Z,3.53
2017-12-27T07:38:03.848Z,4.40
2017-12-27T07:40:30.846Z,4.10
2017-12-27T07:42:58.105Z,3.80
2017-12-27T07:45:24.295Z,4.10
2017-12-27T07:47:50.471Z,4.37
2017-12-27T07:50:16.732Z,4.10
2017-12-27T07:52:43.681Z,4.50
2017-12-27T07:55:10.647Z,3.63
2017-12-27T07:57:36.942Z,4.50
2017-12-27T08:00:03.885Z,4.70
2017-12-27T08:02:30.179Z,4.07
2017-12-27T08:04:56.744Z,4.63
2017-12-27T08:07:22.921Z,5.33
2017-12-27T08:09:49.652Z,4.20
2017-12-27T08:12:15.843Z,3.80
2017-12-27T08:14:42.053Z,4.50
2017-12-27T08:17:08.287Z,4.67
2017-12-27T08:19:34.493Z,4.10
2017-12-27T08:22:00.685Z,4.60
2017-12-27T08:24:27.686Z,4.50
2017-12-27T08:26:53.855Z,3.97
2017-12-27T08:29:20.776Z,4.50
2017-12-27T08:31:47.027Z,4.03
2017-12-27T08:34:13.963Z,4.70
2017-12-27T08:36:40.915Z,3.83
2017-12-27T08:39:07.854Z,4.50
2017-12-27T08:41:34.054Z,4.00
2017-12-27T08:44:00.232Z,3.90
2017-12-27T08:46:27.165Z,4.27
2017-12-27T08:48:54.189Z,4.40
2017-12-27T08:51:20.425Z,3.83
2017-12-27T08:53:46.648Z,4.00
2017-12-27T08:56:12.872Z,4.57
2017-12-27T08:58:39.103Z,4.50
2017-12-27T09:01:05.338Z,3.97
2017-12-27T09:03:31.525Z,7.50
2017-12-27T09:05:57.714Z,7.80
2017-12-27T09:08:24.637Z,7.07
2017-12-27T09:10:50.837Z,6.50
2017-12-27T09:13:17.042Z,6.07
2017-12-27T09:15:43.308Z,5.10
2017-12-27T09:18:09.493Z,4.90
2017-12-27T09:20:35.750Z,5.23
2017-12-27T09:23:02.694Z,5.23
2017-12-27T09:25:28.988Z,4.60
2017-12-27T09:27:55.940Z,5.00
2017-12-27T09:30:22.102Z,5.47
2017-12-27T09:32:48.290Z,6.00
2017-12-27T09:35:14.511Z,4.33
2017-12-27T09:37:41.470Z,4.90
2017-12-27T09:40:07.749Z,4.33
2017-12-27T09:42:33.969Z,4.00
2017-12-27T09:45:00.908Z,5.10
2017-12-27T09:47:27.128Z,5.33
2017-12-27T09:49:53.309Z,4.87
2017-12-27T09:52:19.580Z,5.00
2017-12-27T09:54:45.872Z,5.67
2017-12-27T09:57:13.025Z,5.40
2017-12-27T09:59:39.250Z,4.63
2017-12-27T10:11:51.212Z,4.90
2017-12-27T10:14:17.453Z,5.30
2017-12-27T10:16:44.422Z,4.93
2017-12-27T10:19:10.622Z,5.07
2017-12-27T10:21:37.051Z,4.43
2017-12-27T10:24:03.211Z,4.50
2017-12-27T10:26:29.473Z,4.23
2017-12-27T10:28:55.761Z,4.13
2017-12-27T10:31:22.746Z,4.77
2017-12-27T10:33:48.927Z,4.53
2017-12-27T10:36:16.266Z,4.60
2017-12-27T10:38:42.430Z,4.00
2017-12-27T10:41:08.658Z,4.10
2017-12-27T10:43:34.841Z,4.43
2017-12-27T10:46:01.035Z,4.20
2017-12-27T10:48:27.231Z,3.73
2017-12-27T10:50:54.165Z,4.30
2017-12-27T10:53:21.189Z,3.73
2017-12-27T10:55:47.383Z,3.63
2017-12-27T10:58:13.527Z,4.63
2017-12-27T11:00:39.744Z,3.80
2017-12-27T11:03:05.997Z,3.80
2017-12-27T11:05:32.210Z,3.50
2017-12-27T11:07:58.435Z,4.00
2017-12-27T11:10:24.578Z,3.77
2017-12-27T11:12:50.849Z,3.60
2017-12-27T11:15:17.800Z,4.27
2017-12-27T11:17:44.701Z,3.23
2017-12-27T11:20:10.926Z,4.20
2017-12-27T11:22:37.095Z,3.40
2017-12-27T11:25:04.021Z,3.60
2017-12-27T11:27:30.257Z,4.27
2017-12-27T11:29:56.438Z,3.10
2017-12-27T11:32:22.738Z,3.70
2017-12-27T11:34:48.949Z,3.70
2017-12-27T11:37:15.907Z,3.80
2017-12-27T11:39:43.348Z,3.10
2017-12-27T11:42:10.380Z,4.20
2017-12-27T11:44:36.630Z,3.60
2017-12-27T11:47:03.581Z,3.80
2017-12-27T11:49:30.547Z,3.63
2017-12-27T11:51:56.782Z,3.17
2017-12-27T11:54:23.013Z,2.90
2017-12-27T11:56:49.262Z,2.90
2017-12-27T11:59:15.434Z,3.60
2017-12-27T12:01:42.361Z,3.40
2017-12-27T12:04:08.555Z,3.27
2017-12-27T12:06:34.729Z,3.40
2017-12-27T12:09:00.943Z,4.20
2017-12-27T12:11:27.153Z,3.93
2017-12-27T12:13:53.402Z,3.93
2017-12-27T12:16:19.599Z,3.43
2017-12-27T12:18:45.797Z,3.73
2017-12-27T12:21:12.050Z,4.00
2017-12-27T12:23:38.958Z,4.37
2017-12-27T12:26:05.897Z,4.50
2017-12-27T12:28:32.120Z,4.30
2017-12-27T12:30:58.344Z,4.70
2017-12-27T12:33:24.519Z,3.87
2017-12-27T12:35:50.718Z,4.10
2017-12-27T12:38:17.647Z,3.87
2017-12-27T12:40:43.822Z,4.70
2017-12-27T12:43:10.196Z,4.70
2017-12-27T12:45:36.379Z,5.70
2017-12-27T12:48:02.590Z,5.20
2017-12-27T12:50:29.531Z,4.40
2017-12-27T12:52:56.494Z,5.03
2017-12-27T12:55:22.713Z,5.10
2017-12-27T12:57:49.668Z,4.23
2017-12-27T13:00:15.877Z,4.63
2017-12-27T13:02:42.844Z,5.03
2017-12-27T13:05:09.072Z,5.10
2017-12-27T13:07:35.252Z,4.70
2017-12-27T13:10:01.449Z,4.30
2017-12-27T13:12:27.671Z,4.03
2017-12-27T13:14:54.032Z,5.53
2017-12-27T13:17:20.944Z,4.20
2017-12-27T13:19:47.183Z,4.97
2017-12-27T13:22:13.420Z,5.83
2017-12-27T13:24:39.644Z,5.23
2017-12-27T13:27:05.852Z,4.90
2017-12-27T13:29:32.121Z,5.27
2017-12-27T13:31:58.326Z,4.67
2017-12-27T13:34:24.523Z,5.00
2017-12-27T13:36:51.449Z,4.80
2017-12-27T13:39:17.640Z,5.10
2017-12-27T13:41:43.847Z,4.67
2017-12-27T13:44:10.070Z,5.57
2017-12-27T13:46:36.308Z,4.70
2017-12-27T13:49:02.553Z,4.97
2017-12-27T13:51:28.826Z,4.80
2017-12-27T13:53:55.813Z,4.10
2017-12-27T13:56:21.989Z,4.63
2017-12-27T13:58:48.271Z,4.97
2017-12-27T14:01:14.512Z,4.13
2017-12-27T14:03:40.738Z,5.93
2017-12-27T14:06:06.913Z,5.53
2017-12-27T14:08:33.107Z,4.40
2017-12-27T14:10:59.326Z,5.20
2017-12-27T14:13:25.561Z,4.50
2017-12-27T14:25:42.623Z,6.20
2017-12-27T14:28:08.843Z,7.43
2017-12-27T14:30:35.077Z,7.03
2017-12-27T14:33:01.236Z,6.10
2017-12-27T14:35:27.453Z,5.50
2017-12-27T14:37:53.671Z,5.60
2017-12-27T14:40:19.883Z,7.20
2017-12-27T14:42:46.810Z,6.97
2017-12-27T14:45:13.005Z,7.77
2017-12-27T14:47:39.317Z,5.43
2017-12-27T14:50:05.563Z,5.53
2017-12-27T14:52:31.790Z,6.23
2017-12-27T14:54:57.997Z,7.20
2017-12-27T14:57:24.228Z,5.87
2017-12-27T14:59:50.468Z,5.43
2017-12-27T15:02:16.712Z,5.10
2017-12-27T15:04:42.909Z,6.13
2017-12-27T15:07:09.130Z,5.03
2017-12-27T15:09:35.363Z,4.90
2017-12-27T15:12:01.620Z,4.83
2017-12-27T15:14:28.602Z,5.13
2017-12-27T16:38:51.077Z,6.10
2017-12-27T16:41:17.266Z,6.27
2017-12-27T16:43:43.491Z,6.30
2017-12-27T16:46:10.504Z,6.43
2017-12-27T16:48:36.745Z,5.60
2017-12-27T16:51:03.006Z,5.33
2017-12-27T16:53:29.222Z,6.50
2017-12-27T16:55:56.420Z,5.67
2017-12-27T16:58:22.594Z,5.00
2017-12-27T17:00:49.555Z,5.70
2017-12-27T17:03:16.507Z,5.33
2017-12-27T17:05:42.710Z,5.50
2017-12-27T17:08:08.927Z,4.93
2017-12-27T17:10:35.125Z,4.77
2017-12-27T17:13:01.363Z,5.17
2017-12-27T17:15:27.569Z,5.17
2017-12-27T17:17:53.755Z,5.27
2017-12-27T17:20:20.701Z,5.20
2017-12-27T17:22:47.672Z,5.50
2017-12-27T17:25:13.879Z,6.07
2017-12-27T17:27:40.820Z,5.00
2017-12-27T17:30:07.794Z,5.50
2017-12-27T17:32:34.006Z,5.17
2017-12-27T17:35:00.970Z,5.27
2017-12-27T17:37:27.181Z,5.10
2017-12-27T17:39:54.141Z,5.57
2017-12-27T17:42:21.195Z,6.10
2017-12-27T17:44:47.421Z,6.63
2017-12-27T17:47:13.747Z,5.90
2017-12-27T17:49:42.223Z,5.93
2017-12-27T17:52:09.227Z,7.20
2017-12-27T17:54:35.480Z,8.77
2017-12-27T17:57:01.664Z,8.57
2017-12-27T17:59:27.841Z,9.20
2017-12-27T18:01:54.025Z,10.23
2017-12-27T18:04:20.202Z,9.10
2017-12-27T18:06:47.132Z,10.60
2017-12-27T18:09:13.318Z,11.50
2017-12-27T18:11:39.508Z,12.03
2017-12-27T18:14:06.502Z,10.57
2017-12-27T18:16:32.752Z,11.00
2017-12-27T18:18:58.978Z,12.40
2017-12-27T18:21:25.193Z,12.30
2017-12-27T18:23:51.782Z,12.27
2017-12-27T18:26:18.376Z,12.53
2017-12-27T18:28:44.631Z,12.50
2017-12-27T18:31:10.849Z,12.57
2017-12-27T18:33:37.107Z,11.40
2017-12-27T18:36:04.107Z,10.20
2017-12-27T18:38:30.317Z,10.57
2017-12-27T18:40:56.507Z,10.30
2017-12-27T18:43:23.427Z,10.00
2017-12-27T18:45:49.620Z,10.43
2017-12-27T18:48:16.566Z,10.57
2017-12-27T18:50:42.813Z,11.13
2017-12-27T18:53:09.050Z,9.57
2017-12-27T18:55:35.282Z,10.53
2017-12-27T18:58:02.284Z,10.83
2017-12-27T19:00:28.734Z,11.50
2017-12-27T19:02:54.939Z,10.37
2017-12-27T19:05:21.930Z,10.97
2017-12-27T19:07:48.149Z,12.27
2017-12-27T19:10:14.445Z,10.73
2017-12-27T19:12:40.666Z,11.50
2017-12-27T19:15:07.610Z,11.87
2017-12-27T19:17:34.621Z,9.73
2017-12-27T19:20:00.732Z,9.87
2017-12-27T19:22:26.974Z,10.60
2017-12-27T19:24:53.168Z,10.53
2017-12-27T19:27:19.395Z,10.13
2017-12-27T19:29:45.584Z,10.10
2017-12-27T19:32:11.762Z,8.17
2017-12-27T19:34:37.965Z,8.50
2017-12-27T19:37:04.941Z,7.97
2017-12-27T19:39:31.934Z,7.97
2017-12-27T19:41:58.920Z,6.97
2017-12-27T19:44:25.140Z,7.63
2017-12-27T19:46:51.325Z,6.90
2017-12-27T19:49:17.557Z,8.50
2017-12-27T20:37:34.887Z,3.60
2017-12-27T20:40:01.107Z,5.07
2017-12-27T20:42:27.285Z,5.30
2017-12-27T20:44:54.212Z,4.43
2017-12-27T20:47:20.422Z,5.30
2017-12-27T20:49:46.982Z,7.23
2017-12-27T20:52:13.961Z,5.57
2017-12-27T20:54:40.193Z,4.90
2017-12-27T20:57:06.437Z,6.43
2017-12-27T20:59:32.665Z,6.03
2017-12-27T21:01:58.947Z,5.20
2017-12-27T21:04:25.966Z,7.93
2017-12-27T21:06:52.222Z,6.80
2017-12-27T21:09:18.425Z,6.20
2017-12-27T21:11:44.649Z,7.47
2017-12-27T21:14:11.737Z,7.30
2017-12-27T21:16:38.697Z,6.83
2017-12-27T21:19:05.615Z,7.13
2017-12-27T21:21:31.861Z,7.77
2017-12-27T21:23:58.780Z,6.80
2017-12-27T21:26:25.000Z,7.13
2017-12-27T21:28:51.185Z,7.77
2017-12-27T21:31:17.403Z,6.97
2017-12-27T21:33:44.322Z,7.20
2017-12-27T21:36:10.900Z,7.20
2017-12-27T21:38:37.125Z,6.97
2017-12-27T21:41:03.336Z,7.00
2017-12-27T21:43:30.285Z,7.93
2017-12-27T21:45:57.222Z,7.60
2017-12-27T21:48:30.192Z,7.30
2017-12-27T21:50:56.360Z,7.50
2017-12-27T21:53:22.570Z,7.73
2017-12-27T21:55:49.482Z,7.17
2017-12-27T21:58:22.238Z,8.00
2017-12-27T22:00:54.492Z,7.67
2017-12-27T22:03:20.667Z,7.70
2017-12-27T22:05:46.932Z,6.70
2017-12-27T22:08:13.934Z,8.57
2017-12-27T22:10:40.168Z,7.37
2017-12-27T22:13:06.744Z,7.50
2017-12-27T22:15:33.725Z,7.30
2017-12-27T22:17:59.918Z,6.20
2017-12-27T22:20:32.945Z,6.37
2017-12-27T22:22:59.114Z,7.57
2017-12-27T22:25:25.373Z,6.50
2017-12-27T22:27:51.609Z,6.37
2017-12-27T22:30:17.822Z,6.30
2017-12-27T22:32:44.804Z,6.20
2017-12-27T22:35:11.050Z,5.40
2017-12-27T22:37:37.198Z,5.57
2017-12-27T22:40:03.413Z,6.10
2017-12-27T22:42:29.697Z,5.70
2017-12-27T22:44:55.879Z,6.17
2017-12-27T22:47:22.131Z,4.93
2017-12-27T22:49:49.065Z,4.77
2017-12-27T22:52:15.294Z,5.13
2017-12-27T22:54:41.475Z,5.47
2017-12-27T22:57:07.706Z,5.17
2017-12-27T22:59:33.912Z,5.00
2017-12-27T23:02:00.086Z,6.30
2017-12-27T23:04:26.532Z,5.23
2017-12-27T23:06:52.781Z,4.93
2017-12-27T23:09:19.791Z,5.10
2017-12-27T23:11:45.976Z,5.27
2017-12-27T23:14:12.171Z,4.97
2017-12-27T23:16:38.379Z,5.27
2017-12-27T23:19:04.603Z,5.47
2017-12-27T23:21:30.791Z,4.30
2017-12-27T23:23:56.986Z,5.07
2017-12-27T23:26:23.999Z,5.43
2017-12-27T23:28:50.235Z,4.67
2017-12-27T23:31:16.456Z,6.23
2017-12-27T23:33:42.736Z,5.73
2017-12-27T23:36:09.697Z,5.20
2017-12-27T23:38:35.870Z,6.10
2017-12-27T23:41:02.224Z,5.90
2017-12-27T23:43:28.396Z,5.10
2017-12-27T23:45:54.650Z,5.57
2017-12-27T23:48:20.870Z,6.73
2017-12-27T23:50:47.054Z,6.03
2017-12-27T23:53:13.983Z,6.00
2017-12-27T23:55:40.739Z,6.20
2017-12-27T23:58:07.724Z,6.47
